Darstellungsparameter: Aktuell verwendete Einstellungen:
Skalierung der Graphiken ... ?
xyx+y,   Skalierungsfaktor:      Skalierung: Modus: x, Faktor: 1
Darstellungszeitraum ... ?
Vom - - bis: - -   Zeitraum: 14.08.2020 - 15.08.2020
Min/Max/Avg-Anzeige ... ?
Zeige MMA aktuell
Zeige MMA Monat
Zeige MMA alles
Zeige --A aktuell
Zeige --A Monat
Zeige --A alles
Keine MMA-Anzeige
MMA:
Average (ber die Originaldaten)
MMA-Basis: 14.08.2020 - 15.08.2020
Quicknavigation für Darstellung... ?
Tage:      1T, 2T, 3T, 5T -1T -2T -3T -5T +1T +2T +3T +5T
Wochen: 1W, 2W, 3W -1W -2W -3W +1W +2W +3W
Monate: 1M, 3M, 6M -1M -3M -6M +1M +3M +6M
Jahre:    1J, 3J, 5J, 10J -1J -3J -5J -10J +1J +3J +5J +10J
Nutze für die Darstellung ... ?
Originaldaten oder Mittelwerte auf ...
Stundenbasis Tagesbasis Wochenbasis
Monatsbasis Jahresbasis      Datenbasis: Original-Daten
Darstellen als:
Statistik (Auto) Statistik J:M      Darstellung:
Zur Graphik,    zurück zur Übersicht aller Sensoren.
 
Tabellarische Datenbersicht: ?
 
Sensor: Nr:Datum:Temp:Abs-Feuchte:Windchill:Wind:
Aussen-T/F 1 14-08-2020 00:00:00 22.4 C 16.68 g/m*3 22.4 C 0 km/h
2 14-08-2020 00:05:00 22.4 C 16.68 g/m*3 22.4 C 4.8 km/h
3 14-08-2020 00:10:00 22.3 C 16.59 g/m*3 22.3 C 4.8 km/h
4 14-08-2020 00:15:00 22.3 C 16.59 g/m*3 22.3 C 1.6 km/h
5 14-08-2020 00:20:00 22.2 C 16.49 g/m*3 22.2 C 1.6 km/h
6 14-08-2020 00:25:00 22.2 C 16.69 g/m*3 22.2 C 1.6 km/h
7 14-08-2020 00:30:00 22.2 C 16.69 g/m*3 22.2 C 0 km/h
8 14-08-2020 00:35:00 22.1 C 16.59 g/m*3 22.1 C 0 km/h
9 14-08-2020 00:40:00 22 C 16.5 g/m*3 22 C 0 km/h
10 14-08-2020 00:45:00 21.9 C 16.4 g/m*3 21.9 C 0 km/h
11 14-08-2020 00:50:00 21.9 C 16.4 g/m*3 21.9 C 0 km/h
12 14-08-2020 00:55:00 21.9 C 16.6 g/m*3 21.9 C 0 km/h
13 14-08-2020 01:00:00 21.9 C 16.4 g/m*3 21.9 C 1.6 km/h
14 14-08-2020 01:05:00 21.8 C 16.31 g/m*3 21.8 C 1.6 km/h
15 14-08-2020 01:10:00 21.8 C 16.31 g/m*3 21.8 C 3.2 km/h
16 14-08-2020 01:15:00 21.8 C 16.5 g/m*3 21.8 C 3.2 km/h
17 14-08-2020 01:20:00 21.7 C 16.41 g/m*3 21.7 C 3.2 km/h
18 14-08-2020 01:25:00 21.7 C 16.41 g/m*3 21.7 C 1.6 km/h
19 14-08-2020 01:30:00 21.7 C 16.41 g/m*3 21.7 C 0 km/h
20 14-08-2020 01:35:00 21.7 C 16.6 g/m*3 21.7 C 0 km/h
21 14-08-2020 01:40:00 21.6 C 16.5 g/m*3 21.6 C 1.6 km/h
22 14-08-2020 01:45:00 21.6 C 16.5 g/m*3 21.6 C 0 km/h
23 14-08-2020 01:50:00 21.6 C 16.5 g/m*3 21.6 C 1.6 km/h
24 14-08-2020 01:55:00 21.5 C 16.41 g/m*3 21.5 C 4.8 km/h
25 14-08-2020 02:00:00 21.4 C 16.12 g/m*3 21.4 C 4.8 km/h
Sensor: Nr:Datum:Temp:Abs-Feuchte:Windchill:Wind:
Aussen-T/F 26 14-08-2020 02:05:00 21.3 C 16.03 g/m*3 21.3 C 1.6 km/h
27 14-08-2020 02:10:00 21.3 C 16.03 g/m*3 21.3 C 1.6 km/h
28 14-08-2020 02:15:00 21.3 C 16.22 g/m*3 21.3 C 4.8 km/h
29 14-08-2020 02:20:00 21.2 C 16.12 g/m*3 21.2 C 0 km/h
30 14-08-2020 02:25:00 21.2 C 16.12 g/m*3 21.2 C 0 km/h
31 14-08-2020 02:30:00 21.1 C 16.03 g/m*3 21.1 C 0 km/h
32 14-08-2020 02:35:00 21.1 C 16.03 g/m*3 21.1 C 0 km/h
33 14-08-2020 02:40:00 20.9 C 16.03 g/m*3 20.9 C 0 km/h
34 14-08-2020 02:45:00 20.9 C 16.03 g/m*3 20.9 C 1.6 km/h
35 14-08-2020 02:50:00 20.7 C 15.66 g/m*3 20.7 C 0 km/h
36 14-08-2020 02:55:00 20.7 C 15.84 g/m*3 20.7 C 0 km/h
37 14-08-2020 03:00:00 20.6 C 15.75 g/m*3 20.6 C 0 km/h
38 14-08-2020 03:05:00 20.4 C 15.57 g/m*3 20.4 C 0 km/h
39 14-08-2020 03:10:00 20.3 C 15.48 g/m*3 20.3 C 0 km/h
40 14-08-2020 03:15:00 20.2 C 15.56 g/m*3 20.2 C 0 km/h
41 14-08-2020 03:20:00 20.1 C 15.47 g/m*3 20.1 C 0 km/h
42 14-08-2020 03:25:00 20 C 15.38 g/m*3 20 C 0 km/h
43 14-08-2020 03:30:00 19.9 C 15.29 g/m*3 19.9 C 0 km/h
44 14-08-2020 03:35:00 19.8 C 15.2 g/m*3 19.8 C 0 km/h
45 14-08-2020 03:40:00 19.8 C 15.37 g/m*3 19.8 C 0 km/h
46 14-08-2020 03:45:00 19.8 C 15.37 g/m*3 19.8 C 0 km/h
47 14-08-2020 03:50:00 19.8 C 15.37 g/m*3 19.8 C 0 km/h
48 14-08-2020 03:55:00 19.7 C 15.28 g/m*3 19.7 C 0 km/h
49 14-08-2020 04:00:00 19.6 C 15.19 g/m*3 19.6 C 0 km/h
50 14-08-2020 04:05:00 19.6 C 15.19 g/m*3 19.6 C 3.2 km/h
Sensor: Nr:Datum:Temp:Abs-Feuchte:Windchill:Wind:
Aussen-T/F 51 14-08-2020 04:10:00 19.5 C 15.1 g/m*3 19.5 C 1.6 km/h
52 14-08-2020 04:15:00 19.4 C 15.02 g/m*3 19.4 C 1.6 km/h
53 14-08-2020 04:20:00 19.3 C 14.93 g/m*3 19.3 C 1.6 km/h
54 14-08-2020 04:25:00 19.3 C 14.93 g/m*3 19.3 C 1.6 km/h
55 14-08-2020 04:30:00 19.2 C 14.84 g/m*3 19.2 C 0 km/h
56 14-08-2020 04:35:00 19.2 C 14.84 g/m*3 19.2 C 0 km/h
57 14-08-2020 04:40:00 19.1 C 14.92 g/m*3 19.1 C 0 km/h
58 14-08-2020 04:45:00 19.1 C 14.92 g/m*3 19.1 C 1.6 km/h
59 14-08-2020 04:50:00 19 C 14.83 g/m*3 19 C 0 km/h
60 14-08-2020 04:55:00 18.9 C 14.74 g/m*3 18.9 C 0 km/h
61 14-08-2020 05:00:00 18.9 C 14.74 g/m*3 18.9 C 0 km/h
62 14-08-2020 05:05:00 18.8 C 14.66 g/m*3 18.8 C 0 km/h
63 14-08-2020 05:10:00 18.8 C 14.82 g/m*3 18.8 C 0 km/h
64 14-08-2020 05:15:00 18.7 C 14.73 g/m*3 18.7 C 1.6 km/h
65 14-08-2020 05:20:00 18.8 C 14.82 g/m*3 18.8 C 0 km/h
66 14-08-2020 05:25:00 18.7 C 14.73 g/m*3 18.7 C 0 km/h
67 14-08-2020 05:30:00 18.7 C 14.73 g/m*3 18.7 C 1.6 km/h
68 14-08-2020 05:35:00 18.7 C 14.73 g/m*3 18.7 C 0 km/h
69 14-08-2020 05:40:00 18.7 C 14.73 g/m*3 18.7 C 1.6 km/h
70 14-08-2020 05:45:00 18.7 C 14.89 g/m*3 18.7 C 1.6 km/h
71 14-08-2020 05:50:00 18.7 C 14.89 g/m*3 18.7 C 0 km/h
72 14-08-2020 05:55:00 18.7 C 14.89 g/m*3 18.7 C 1.6 km/h
73 14-08-2020 06:00:00 18.7 C 14.89 g/m*3 18.7 C 1.6 km/h
74 14-08-2020 06:05:00 18.7 C 14.89 g/m*3 18.7 C 0 km/h
75 14-08-2020 06:10:00 18.8 C 14.98 g/m*3 18.8 C 0 km/h
Sensor: Nr:Datum:Temp:Abs-Feuchte:Windchill:Wind:
Aussen-T/F 76 14-08-2020 06:15:00 18.7 C 14.89 g/m*3 18.7 C 1.6 km/h
77 14-08-2020 06:20:00 18.8 C 14.98 g/m*3 18.8 C 1.6 km/h
78 14-08-2020 06:25:00 18.8 C 14.98 g/m*3 18.8 C 0 km/h
79 14-08-2020 06:30:00 18.8 C 14.98 g/m*3 18.8 C 0 km/h
80 14-08-2020 06:35:00 18.8 C 14.98 g/m*3 18.8 C 0 km/h
81 14-08-2020 06:40:00 18.8 C 14.98 g/m*3 18.8 C 1.6 km/h
82 14-08-2020 06:45:00 18.7 C 14.73 g/m*3 18.7 C 0 km/h
83 14-08-2020 06:50:00 18.7 C 14.73 g/m*3 18.7 C 0 km/h
84 14-08-2020 06:55:00 18.6 C 14.64 g/m*3 18.6 C 0 km/h
85 14-08-2020 07:00:00 18.6 C 14.64 g/m*3 18.6 C 0 km/h
86 14-08-2020 07:05:00 18.6 C 14.64 g/m*3 18.6 C 0 km/h
87 14-08-2020 07:10:00 18.7 C 14.73 g/m*3 18.7 C 0 km/h
88 14-08-2020 07:15:00 18.7 C 14.73 g/m*3 18.7 C 0 km/h
89 14-08-2020 07:20:00 18.8 C 14.98 g/m*3 18.8 C 3.2 km/h
90 14-08-2020 07:25:00 18.9 C 15.07 g/m*3 18.9 C 0 km/h
91 14-08-2020 07:30:00 19.1 C 15.08 g/m*3 19.1 C 0 km/h
92 14-08-2020 07:35:00 19.1 C 15.08 g/m*3 19.1 C 0 km/h
93 14-08-2020 07:40:00 19.2 C 15.17 g/m*3 19.2 C 0 km/h
94 14-08-2020 07:45:00 19.2 C 15.17 g/m*3 19.2 C 0 km/h
95 14-08-2020 07:50:00 19.2 C 15.17 g/m*3 19.2 C 0 km/h
96 14-08-2020 07:55:00 19.3 C 15.26 g/m*3 19.3 C 0 km/h
97 14-08-2020 08:00:00 19.3 C 15.26 g/m*3 19.3 C 0 km/h
98 14-08-2020 08:05:00 19.3 C 15.26 g/m*3 19.3 C 0 km/h
99 14-08-2020 08:10:00 19.4 C 15.35 g/m*3 19.4 C 0 km/h
100 14-08-2020 08:15:00 19.5 C 15.44 g/m*3 19.5 C 0 km/h
Sensor: Nr:Datum:Temp:Abs-Feuchte:Windchill:Wind:
Aussen-T/F 101 14-08-2020 08:20:00 19.7 C 15.62 g/m*3 19.7 C 0 km/h
102 14-08-2020 08:25:00 19.8 C 15.54 g/m*3 19.8 C 0 km/h
103 14-08-2020 08:30:00 20 C 15.73 g/m*3 20 C 0 km/h
104 14-08-2020 08:35:00 20.2 C 15.91 g/m*3 20.2 C 0 km/h
105 14-08-2020 08:40:00 20.4 C 15.92 g/m*3 20.4 C 0 km/h
106 14-08-2020 08:45:00 20.6 C 16.11 g/m*3 20.6 C 0 km/h
107 14-08-2020 08:50:00 20.6 C 15.93 g/m*3 20.6 C 0 km/h
108 14-08-2020 08:55:00 20.7 C 15.84 g/m*3 20.7 C 0 km/h
109 14-08-2020 09:00:00 20.8 C 15.75 g/m*3 20.8 C 1.6 km/h
110 14-08-2020 09:05:00 20.8 C 15.93 g/m*3 20.8 C 1.6 km/h
111 14-08-2020 09:10:00 20.9 C 16.03 g/m*3 20.9 C 1.6 km/h
112 14-08-2020 09:15:00 20.9 C 16.21 g/m*3 20.9 C 0 km/h
113 14-08-2020 09:20:00 20.9 C 16.21 g/m*3 20.9 C 0 km/h
114 14-08-2020 09:25:00 21.1 C 16.4 g/m*3 21.1 C 0 km/h
115 14-08-2020 09:30:00 21 C 16.12 g/m*3 21 C 3.2 km/h
116 14-08-2020 09:35:00 21 C 16.12 g/m*3 21 C 3.2 km/h
117 14-08-2020 09:40:00 21.1 C 15.85 g/m*3 21.1 C 6.4 km/h
118 14-08-2020 09:45:00 21.2 C 15.57 g/m*3 21.2 C 9.7 km/h
119 14-08-2020 09:50:00 21.4 C 15.56 g/m*3 21.4 C 9.7 km/h
120 14-08-2020 09:55:00 21.7 C 15.45 g/m*3 21.7 C 9.7 km/h
121 14-08-2020 10:00:00 22 C 15.72 g/m*3 22 C 6.4 km/h
122 14-08-2020 10:05:00 22.2 C 15.71 g/m*3 22.2 C 8.1 km/h
123 14-08-2020 10:10:00 22.5 C 15.58 g/m*3 22.5 C 9.7 km/h
124 14-08-2020 10:15:00 22.7 C 15.56 g/m*3 22.7 C 12.9 km/h
125 14-08-2020 10:20:00 22.8 C 15.65 g/m*3 22.8 C 11.3 km/h
Sensor: Nr:Datum:Temp:Abs-Feuchte:Windchill:Wind:
Aussen-T/F 126 14-08-2020 10:25:00 22.9 C 15.74 g/m*3 22.9 C 14.5 km/h
127 14-08-2020 10:30:00 23 C 15.83 g/m*3 23 C 12.9 km/h
128 14-08-2020 10:35:00 22.9 C 15.74 g/m*3 22.9 C 9.7 km/h
129 14-08-2020 10:40:00 22.8 C 15.85 g/m*3 22.8 C 9.7 km/h
130 14-08-2020 10:45:00 22.7 C 15.96 g/m*3 22.7 C 8.1 km/h
131 14-08-2020 10:50:00 22.5 C 15.58 g/m*3 22.5 C 11.3 km/h
132 14-08-2020 10:55:00 22.4 C 15.69 g/m*3 22.4 C 9.7 km/h
133 14-08-2020 11:00:00 22.3 C 15.8 g/m*3 22.3 C 4.8 km/h
134 14-08-2020 11:05:00 22.3 C 15.8 g/m*3 22.3 C 6.4 km/h
135 14-08-2020 11:10:00 22.3 C 15.8 g/m*3 22.3 C 4.8 km/h
136 14-08-2020 11:15:00 22.3 C 15.99 g/m*3 22.3 C 6.4 km/h
137 14-08-2020 11:20:00 22.3 C 15.8 g/m*3 22.3 C 11.3 km/h
138 14-08-2020 11:25:00 22.3 C 15.8 g/m*3 22.3 C 8.1 km/h
139 14-08-2020 11:30:00 22.3 C 15.6 g/m*3 22.3 C 12.9 km/h
140 14-08-2020 11:35:00 22.3 C 15.4 g/m*3 22.3 C 8.1 km/h
141 14-08-2020 11:40:00 22.3 C 15.6 g/m*3 22.3 C 8.1 km/h
142 14-08-2020 11:45:00 22.3 C 15.4 g/m*3 22.3 C 6.4 km/h
143 14-08-2020 11:50:00 22.3 C 15.4 g/m*3 22.3 C 9.7 km/h
144 14-08-2020 11:55:00 22.3 C 15.6 g/m*3 22.3 C 6.4 km/h
145 14-08-2020 12:00:00 22.3 C 15.6 g/m*3 22.3 C 4.8 km/h
146 14-08-2020 12:05:00 22.3 C 15.6 g/m*3 22.3 C 8.1 km/h
147 14-08-2020 12:10:00 22.3 C 15.6 g/m*3 22.3 C 6.4 km/h
148 14-08-2020 12:15:00 22.3 C 15.6 g/m*3 22.3 C 3.2 km/h
149 14-08-2020 12:20:00 22.3 C 15.6 g/m*3 22.3 C 4.8 km/h
150 14-08-2020 12:25:00 22.3 C 15.4 g/m*3 22.3 C 6.4 km/h
Sensor: Nr:Datum:Temp:Abs-Feuchte:Windchill:Wind:
Aussen-T/F 151 14-08-2020 12:30:00 22.3 C 15.6 g/m*3 22.3 C 6.4 km/h
152 14-08-2020 12:35:00 22.3 C 15.6 g/m*3 22.3 C 9.7 km/h
153 14-08-2020 12:40:00 22.3 C 15.8 g/m*3 22.3 C 8.1 km/h
154 14-08-2020 12:45:00 22.4 C 15.89 g/m*3 22.4 C 8.1 km/h
155 14-08-2020 12:50:00 22.4 C 15.69 g/m*3 22.4 C 9.7 km/h
156 14-08-2020 12:55:00 22.5 C 15.78 g/m*3 22.5 C 4.8 km/h
157 14-08-2020 13:00:00 22.6 C 15.87 g/m*3 22.6 C 8.1 km/h
158 14-08-2020 13:05:00 22.6 C 15.67 g/m*3 22.6 C 9.7 km/h
159 14-08-2020 13:10:00 22.8 C 16.05 g/m*3 22.8 C 8.1 km/h
160 14-08-2020 13:15:00 22.9 C 15.94 g/m*3 22.9 C 6.4 km/h
161 14-08-2020 13:20:00 23.1 C 15.92 g/m*3 23.1 C 11.3 km/h
162 14-08-2020 13:25:00 23.2 C 16.01 g/m*3 23.2 C 9.7 km/h
163 14-08-2020 13:30:00 23.3 C 16.1 g/m*3 23.3 C 9.7 km/h
164 14-08-2020 13:35:00 23.4 C 15.98 g/m*3 23.4 C 11.3 km/h
165 14-08-2020 13:40:00 23.6 C 16.38 g/m*3 23.6 C 6.4 km/h
166 14-08-2020 13:45:00 23.7 C 16.26 g/m*3 23.7 C 8.1 km/h
167 14-08-2020 13:50:00 23.8 C 16.13 g/m*3 23.8 C 8.1 km/h
168 14-08-2020 13:55:00 24.1 C 16.41 g/m*3 24.1 C 9.7 km/h
169 14-08-2020 14:00:00 24.3 C 16.15 g/m*3 24.3 C 12.9 km/h
170 14-08-2020 14:05:00 24.6 C 16.43 g/m*3 24.6 C 12.9 km/h
171 14-08-2020 14:10:00 24.8 C 16.39 g/m*3 24.8 C 12.9 km/h
172 14-08-2020 14:15:00 25.1 C 16.2 g/m*3 25.1 C 11.3 km/h
173 14-08-2020 14:20:00 25.3 C 16.39 g/m*3 25.3 C 19.3 km/h
174 14-08-2020 14:25:00 25.4 C 16.48 g/m*3 25.4 C 11.3 km/h
175 14-08-2020 14:30:00 25.4 C 16.72 g/m*3 25.4 C 14.5 km/h
Sensor: Nr:Datum:Temp:Abs-Feuchte:Windchill:Wind:
Aussen-T/F 176 14-08-2020 14:35:00 25.5 C 16.57 g/m*3 25.5 C 12.9 km/h
177 14-08-2020 14:40:00 25.5 C 16.34 g/m*3 25.5 C 12.9 km/h
178 14-08-2020 14:45:00 25.4 C 16.24 g/m*3 25.4 C 11.3 km/h
179 14-08-2020 14:50:00 25.6 C 16.43 g/m*3 25.6 C 12.9 km/h
180 14-08-2020 14:55:00 25.8 C 16.61 g/m*3 25.8 C 9.7 km/h
181 14-08-2020 15:00:00 26.1 C 16.89 g/m*3 26.1 C 12.9 km/h
182 14-08-2020 15:05:00 26.4 C 16.43 g/m*3 26.4 C 9.7 km/h
183 14-08-2020 15:10:00 26.5 C 16.27 g/m*3 26.5 C 14.5 km/h
184 14-08-2020 15:15:00 26.7 C 16.2 g/m*3 26.7 C 8.1 km/h
185 14-08-2020 15:20:00 26.7 C 15.95 g/m*3 26.7 C 9.7 km/h
186 14-08-2020 15:25:00 26.7 C 16.2 g/m*3 26.7 C 11.3 km/h
187 14-08-2020 15:30:00 27.1 C 16.3 g/m*3 27.1 C 11.3 km/h
188 14-08-2020 15:35:00 27.7 C 15.25 g/m*3 27.7 C 11.3 km/h
189 14-08-2020 15:40:00 28.1 C 15.59 g/m*3 28.1 C 9.7 km/h
190 14-08-2020 15:45:00 28.4 C 15.84 g/m*3 28.4 C 14.5 km/h
191 14-08-2020 15:50:00 28.8 C 15.34 g/m*3 28.8 C 11.3 km/h
192 14-08-2020 15:55:00 29.2 C 15.39 g/m*3 29.2 C 12.9 km/h
193 14-08-2020 16:00:00 29.5 C 15.35 g/m*3 29.5 C 17.7 km/h
194 14-08-2020 16:05:00 29.6 C 15.13 g/m*3 29.6 C 12.9 km/h
195 14-08-2020 16:10:00 29.6 C 14.84 g/m*3 29.6 C 19.3 km/h
196 14-08-2020 16:15:00 29.4 C 14.68 g/m*3 29.4 C 12.9 km/h
197 14-08-2020 16:20:00 29.2 C 15.1 g/m*3 29.2 C 14.5 km/h
198 14-08-2020 16:25:00 29.2 C 15.39 g/m*3 29.2 C 14.5 km/h
199 14-08-2020 16:30:00 29.3 C 14.89 g/m*3 29.3 C 19.3 km/h
200 14-08-2020 16:35:00 29.3 C 14.6 g/m*3 29.3 C 12.9 km/h
Sensor: Nr:Datum:Temp:Abs-Feuchte:Windchill:Wind:
Aussen-T/F 201 14-08-2020 16:40:00 28.9 C 15.14 g/m*3 28.9 C 16.1 km/h
202 14-08-2020 16:45:00 28.7 C 14.69 g/m*3 28.7 C 12.9 km/h
203 14-08-2020 16:50:00 28.6 C 15.18 g/m*3 28.6 C 8.1 km/h
204 14-08-2020 16:55:00 28.8 C 15.06 g/m*3 28.8 C 11.3 km/h
205 14-08-2020 17:00:00 29.1 C 14.73 g/m*3 29.1 C 12.9 km/h
206 14-08-2020 17:05:00 29.5 C 15.05 g/m*3 29.5 C 9.7 km/h
207 14-08-2020 17:10:00 29.7 C 14.92 g/m*3 29.7 C 11.3 km/h
208 14-08-2020 17:15:00 29.8 C 14.7 g/m*3 29.8 C 14.5 km/h
209 14-08-2020 17:20:00 30.1 C 15.24 g/m*3 30.1 C 8.1 km/h
210 14-08-2020 17:25:00 30.3 C 15.1 g/m*3 30.3 C 11.3 km/h
211 14-08-2020 17:30:00 30.2 C 15.63 g/m*3 30.2 C 8.1 km/h
212 14-08-2020 17:35:00 30.2 C 15.02 g/m*3 30.2 C 9.7 km/h
213 14-08-2020 17:40:00 30.2 C 15.33 g/m*3 30.2 C 8.1 km/h
214 14-08-2020 17:45:00 30.4 C 14.87 g/m*3 30.4 C 11.3 km/h
215 14-08-2020 17:50:00 30.6 C 15.03 g/m*3 30.6 C 6.4 km/h
216 14-08-2020 17:55:00 30.7 C 15.12 g/m*3 30.7 C 14.5 km/h
217 14-08-2020 18:00:00 30.6 C 14.72 g/m*3 30.6 C 14.5 km/h
218 14-08-2020 18:05:00 30.6 C 15.66 g/m*3 30.6 C 9.7 km/h
219 14-08-2020 18:10:00 30.7 C 15.12 g/m*3 30.7 C 12.9 km/h
220 14-08-2020 18:15:00 30.6 C 15.03 g/m*3 30.6 C 11.3 km/h
221 14-08-2020 18:20:00 30.4 C 14.87 g/m*3 30.4 C 11.3 km/h
222 14-08-2020 18:25:00 30.3 C 15.1 g/m*3 30.3 C 9.7 km/h
223 14-08-2020 18:30:00 30.3 C 15.41 g/m*3 30.3 C 9.7 km/h
224 14-08-2020 18:35:00 30.2 C 15.02 g/m*3 30.2 C 14.5 km/h
225 14-08-2020 18:40:00 30.2 C 15.33 g/m*3 30.2 C 11.3 km/h
Sensor: Nr:Datum:Temp:Abs-Feuchte:Windchill:Wind:
Aussen-T/F 226 14-08-2020 18:45:00 30.1 C 15.55 g/m*3 30.1 C 11.3 km/h
227 14-08-2020 18:50:00 30.1 C 15.55 g/m*3 30.1 C 12.9 km/h
228 14-08-2020 18:55:00 30.2 C 15.33 g/m*3 30.2 C 8.1 km/h
229 14-08-2020 19:00:00 30.2 C 15.33 g/m*3 30.2 C 8.1 km/h
230 14-08-2020 19:05:00 30.1 C 15.55 g/m*3 30.1 C 9.7 km/h
231 14-08-2020 19:10:00 30.1 C 16.16 g/m*3 30.1 C 3.2 km/h
232 14-08-2020 19:15:00 29.6 C 15.73 g/m*3 29.6 C 6.4 km/h
233 14-08-2020 19:20:00 29 C 15.8 g/m*3 29 C 8.1 km/h
234 14-08-2020 19:25:00 28.3 C 16.03 g/m*3 28.3 C 3.2 km/h
235 14-08-2020 19:30:00 27.9 C 16.23 g/m*3 27.9 C 6.4 km/h
236 14-08-2020 19:35:00 27.8 C 16.41 g/m*3 27.8 C 4.8 km/h
237 14-08-2020 19:40:00 27.8 C 15.87 g/m*3 27.8 C 3.2 km/h
238 14-08-2020 19:45:00 27.7 C 15.78 g/m*3 27.7 C 8.1 km/h
239 14-08-2020 19:50:00 27.6 C 15.96 g/m*3 27.6 C 3.2 km/h
240 14-08-2020 19:55:00 27.4 C 15.79 g/m*3 27.4 C 1.6 km/h
241 14-08-2020 20:00:00 27.2 C 15.87 g/m*3 27.2 C 3.2 km/h
242 14-08-2020 20:05:00 26.9 C 15.61 g/m*3 26.9 C 1.6 km/h
243 14-08-2020 20:10:00 26.7 C 15.69 g/m*3 26.7 C 0 km/h
244 14-08-2020 20:15:00 26.6 C 16.11 g/m*3 26.6 C 4.8 km/h
245 14-08-2020 20:20:00 26.4 C 16.18 g/m*3 26.4 C 4.8 km/h
246 14-08-2020 20:25:00 26.2 C 16 g/m*3 26.2 C 0 km/h
247 14-08-2020 20:30:00 26.1 C 16.16 g/m*3 26.1 C 0 km/h
248 14-08-2020 20:35:00 25.9 C 15.98 g/m*3 25.9 C 0 km/h
249 14-08-2020 20:40:00 25.7 C 15.8 g/m*3 25.7 C 0 km/h
250 14-08-2020 20:45:00 25.6 C 15.95 g/m*3 25.6 C 4.8 km/h
Sensor: Nr:Datum:Temp:Abs-Feuchte:Windchill:Wind:
Aussen-T/F 251 14-08-2020 20:50:00 25.3 C 15.92 g/m*3 25.3 C 3.2 km/h
252 14-08-2020 20:55:00 25.2 C 15.83 g/m*3 25.2 C 12.9 km/h
253 14-08-2020 21:00:00 25 C 16.57 g/m*3 25 C 4.8 km/h
254 14-08-2020 21:05:00 24.6 C 16.66 g/m*3 24.6 C 8.1 km/h
255 14-08-2020 21:10:00 24.1 C 16.63 g/m*3 24.1 C 4.8 km/h
256 14-08-2020 21:15:00 23.6 C 16.38 g/m*3 23.6 C 4.8 km/h
257 14-08-2020 21:20:00 23.1 C 16.12 g/m*3 23.1 C 3.2 km/h
258 14-08-2020 21:25:00 22.8 C 16.26 g/m*3 22.8 C 4.8 km/h
259 14-08-2020 21:30:00 22.6 C 16.07 g/m*3 22.6 C 4.8 km/h
260 14-08-2020 21:35:00 22.3 C 15.99 g/m*3 22.3 C 8.1 km/h
261 14-08-2020 21:40:00 22.2 C 15.71 g/m*3 22.2 C 6.4 km/h
262 14-08-2020 21:45:00 22.2 C 15.71 g/m*3 22.2 C 3.2 km/h
263 14-08-2020 21:50:00 22.1 C 15.62 g/m*3 22.1 C 1.6 km/h
264 14-08-2020 21:55:00 22.1 C 15.42 g/m*3 22.1 C 0 km/h
265 14-08-2020 22:00:00 22.2 C 15.71 g/m*3 22.2 C 0 km/h
266 14-08-2020 22:05:00 22.2 C 15.71 g/m*3 22.2 C 0 km/h
267 14-08-2020 22:10:00 22.2 C 15.9 g/m*3 22.2 C 0 km/h
268 14-08-2020 22:15:00 22.2 C 15.9 g/m*3 22.2 C 0 km/h
269 14-08-2020 22:20:00 22.2 C 15.9 g/m*3 22.2 C 0 km/h
270 14-08-2020 22:25:00 22.1 C 15.81 g/m*3 22.1 C 0 km/h
271 14-08-2020 22:30:00 22.1 C 16.01 g/m*3 22.1 C 0 km/h
272 14-08-2020 22:35:00 22 C 15.91 g/m*3 22 C 0 km/h
273 14-08-2020 22:40:00 21.9 C 15.82 g/m*3 21.9 C 0 km/h
274 14-08-2020 22:45:00 21.9 C 15.82 g/m*3 21.9 C 0 km/h
275 14-08-2020 22:50:00 21.8 C 15.73 g/m*3 21.8 C 0 km/h
Sensor: Nr:Datum:Temp:Abs-Feuchte:Windchill:Wind:
Aussen-T/F 276 14-08-2020 22:55:00 21.8 C 15.73 g/m*3 21.8 C 0 km/h
277 14-08-2020 23:00:00 21.8 C 15.73 g/m*3 21.8 C 0 km/h
278 14-08-2020 23:05:00 21.8 C 15.73 g/m*3 21.8 C 0 km/h
279 14-08-2020 23:10:00 21.7 C 15.64 g/m*3 21.7 C 0 km/h
280 14-08-2020 23:15:00 21.7 C 15.64 g/m*3 21.7 C 0 km/h
281 14-08-2020 23:20:00 21.7 C 15.83 g/m*3 21.7 C 0 km/h
282 14-08-2020 23:25:00 21.6 C 15.55 g/m*3 21.6 C 0 km/h
283 14-08-2020 23:30:00 21.6 C 15.74 g/m*3 21.6 C 0 km/h
284 14-08-2020 23:35:00 21.6 C 15.74 g/m*3 21.6 C 0 km/h
285 14-08-2020 23:40:00 21.5 C 15.65 g/m*3 21.5 C 0 km/h
286 14-08-2020 23:45:00 21.5 C 15.65 g/m*3 21.5 C 1.6 km/h
287 14-08-2020 23:50:00 21.5 C 15.84 g/m*3 21.5 C 4.8 km/h
288 14-08-2020 23:55:00 21.5 C 15.84 g/m*3 21.5 C 0 km/h
289 15-08-2020 00:00:00 21.6 C 15.93 g/m*3 21.6 C 1.6 km/h
290 15-08-2020 00:05:00 21.5 C 15.84 g/m*3 21.5 C 4.8 km/h
291 15-08-2020 00:10:00 21.4 C 15.75 g/m*3 21.4 C 4.8 km/h
292 15-08-2020 00:15:00 21.4 C 15.75 g/m*3 21.4 C 6.4 km/h
293 15-08-2020 00:20:00 21.3 C 15.66 g/m*3 21.3 C 0 km/h
294 15-08-2020 00:25:00 21.3 C 15.84 g/m*3 21.3 C 0 km/h
295 15-08-2020 00:30:00 21.3 C 15.84 g/m*3 21.3 C 0 km/h
296 15-08-2020 00:35:00 21.2 C 15.75 g/m*3 21.2 C 1.6 km/h
297 15-08-2020 00:40:00 21.2 C 15.75 g/m*3 21.2 C 1.6 km/h
298 15-08-2020 00:45:00 21.2 C 15.94 g/m*3 21.2 C 0 km/h
299 15-08-2020 00:50:00 21.2 C 15.94 g/m*3 21.2 C 0 km/h
300 15-08-2020 00:55:00 21.1 C 15.85 g/m*3 21.1 C 0 km/h
Sensor: Nr:Datum:Temp:Abs-Feuchte:Windchill:Wind:
Aussen-T/F 301 15-08-2020 01:00:00 21.1 C 15.85 g/m*3 21.1 C 0 km/h
302 15-08-2020 01:05:00 21.1 C 15.85 g/m*3 21.1 C 0 km/h
303 15-08-2020 01:10:00 21 C 15.75 g/m*3 21 C 3.2 km/h
304 15-08-2020 01:15:00 21 C 15.75 g/m*3 21 C 0 km/h
305 15-08-2020 01:20:00 21 C 15.94 g/m*3 21 C 0 km/h
306 15-08-2020 01:25:00 21 C 15.75 g/m*3 21 C 0 km/h
307 15-08-2020 01:30:00 20.9 C 15.84 g/m*3 20.9 C 0 km/h
308 15-08-2020 01:35:00 20.9 C 15.84 g/m*3 20.9 C 0 km/h
309 15-08-2020 01:40:00 20.8 C 15.75 g/m*3 20.8 C 0 km/h
310 15-08-2020 01:45:00 20.8 C 15.75 g/m*3 20.8 C 0 km/h
311 15-08-2020 01:50:00 20.7 C 15.66 g/m*3 20.7 C 0 km/h
312 15-08-2020 01:55:00 20.7 C 15.66 g/m*3 20.7 C 0 km/h
313 15-08-2020 02:00:00 20.6 C 15.57 g/m*3 20.6 C 1.6 km/h
314 15-08-2020 02:05:00 20.6 C 15.57 g/m*3 20.6 C 1.6 km/h
315 15-08-2020 02:10:00 20.4 C 15.39 g/m*3 20.4 C 1.6 km/h
316 15-08-2020 02:15:00 20.3 C 15.3 g/m*3 20.3 C 0 km/h
317 15-08-2020 02:20:00 20.3 C 15.3 g/m*3 20.3 C 1.6 km/h
318 15-08-2020 02:25:00 20.2 C 15.21 g/m*3 20.2 C 3.2 km/h
319 15-08-2020 02:30:00 20.1 C 15.3 g/m*3 20.1 C 1.6 km/h
320 15-08-2020 02:35:00 20 C 15.21 g/m*3 20 C 3.2 km/h
321 15-08-2020 02:40:00 19.9 C 15.12 g/m*3 19.9 C 1.6 km/h
322 15-08-2020 02:45:00 19.9 C 15.12 g/m*3 19.9 C 0 km/h
323 15-08-2020 02:50:00 19.8 C 15.2 g/m*3 19.8 C 0 km/h
324 15-08-2020 02:55:00 19.7 C 15.11 g/m*3 19.7 C 0 km/h
325 15-08-2020 03:00:00 19.7 C 15.11 g/m*3 19.7 C 0 km/h
Sensor: Nr:Datum:Temp:Abs-Feuchte:Windchill:Wind:
Aussen-T/F 326 15-08-2020 03:05:00 19.7 C 15.28 g/m*3 19.7 C 0 km/h
327 15-08-2020 03:10:00 19.6 C 15.19 g/m*3 19.6 C 0 km/h
328 15-08-2020 03:15:00 19.6 C 15.19 g/m*3 19.6 C 0 km/h
329 15-08-2020 03:20:00 19.4 C 15.02 g/m*3 19.4 C 0 km/h
330 15-08-2020 03:25:00 19.4 C 15.02 g/m*3 19.4 C 1.6 km/h
331 15-08-2020 03:30:00 19.3 C 14.93 g/m*3 19.3 C 0 km/h
332 15-08-2020 03:35:00 19.3 C 15.09 g/m*3 19.3 C 0 km/h
333 15-08-2020 03:40:00 19.3 C 15.09 g/m*3 19.3 C 0 km/h
334 15-08-2020 03:45:00 19.2 C 15.01 g/m*3 19.2 C 0 km/h
335 15-08-2020 03:50:00 19.2 C 15.01 g/m*3 19.2 C 0 km/h
336 15-08-2020 03:55:00 19.1 C 14.92 g/m*3 19.1 C 0 km/h
337 15-08-2020 04:00:00 19 C 14.83 g/m*3 19 C 0 km/h
338 15-08-2020 04:05:00 18.9 C 14.9 g/m*3 18.9 C 0 km/h
339 15-08-2020 04:10:00 18.9 C 14.9 g/m*3 18.9 C 0 km/h
340 15-08-2020 04:15:00 18.8 C 14.82 g/m*3 18.8 C 0 km/h
341 15-08-2020 04:20:00 18.8 C 14.82 g/m*3 18.8 C 0 km/h
342 15-08-2020 04:25:00 18.7 C 14.73 g/m*3 18.7 C 0 km/h
343 15-08-2020 04:30:00 18.7 C 14.73 g/m*3 18.7 C 0 km/h
344 15-08-2020 04:35:00 18.6 C 14.8 g/m*3 18.6 C 0 km/h
345 15-08-2020 04:40:00 18.6 C 14.8 g/m*3 18.6 C 0 km/h
346 15-08-2020 04:45:00 18.6 C 14.8 g/m*3 18.6 C 0 km/h
347 15-08-2020 04:50:00 18.5 C 14.71 g/m*3 18.5 C 0 km/h
348 15-08-2020 04:55:00 18.4 C 14.63 g/m*3 18.4 C 0 km/h
349 15-08-2020 05:00:00 18.3 C 14.54 g/m*3 18.3 C 0 km/h
350 15-08-2020 05:05:00 18.3 C 14.54 g/m*3 18.3 C 0 km/h
Sensor: Nr:Datum:Temp:Abs-Feuchte:Windchill:Wind:
Aussen-T/F 351 15-08-2020 05:10:00 18.3 C 14.54 g/m*3 18.3 C 0 km/h
352 15-08-2020 05:15:00 18.3 C 14.54 g/m*3 18.3 C 0 km/h
353 15-08-2020 05:20:00 18.3 C 14.7 g/m*3 18.3 C 0 km/h
354 15-08-2020 05:25:00 18.2 C 14.61 g/m*3 18.2 C 0 km/h
355 15-08-2020 05:30:00 18.3 C 14.7 g/m*3 18.3 C 0 km/h
356 15-08-2020 05:35:00 18.3 C 14.7 g/m*3 18.3 C 0 km/h
357 15-08-2020 05:40:00 18.3 C 14.7 g/m*3 18.3 C 0 km/h
358 15-08-2020 05:45:00 18.3 C 14.7 g/m*3 18.3 C 0 km/h
359 15-08-2020 05:50:00 18.4 C 14.78 g/m*3 18.4 C 0 km/h
360 15-08-2020 05:55:00 18.4 C 14.78 g/m*3 18.4 C 0 km/h
361 15-08-2020 06:00:00 18.4 C 14.78 g/m*3 18.4 C 0 km/h
362 15-08-2020 06:05:00 18.4 C 14.78 g/m*3 18.4 C 0 km/h
363 15-08-2020 06:10:00 18.4 C 14.78 g/m*3 18.4 C 0 km/h
364 15-08-2020 06:15:00 18.3 C 14.7 g/m*3 18.3 C 0 km/h
365 15-08-2020 06:20:00 18.3 C 14.7 g/m*3 18.3 C 0 km/h
366 15-08-2020 06:25:00 18.3 C 14.7 g/m*3 18.3 C 0 km/h
367 15-08-2020 06:30:00 18.3 C 14.7 g/m*3 18.3 C 0 km/h
368 15-08-2020 06:35:00 18.2 C 14.61 g/m*3 18.2 C 0 km/h
369 15-08-2020 06:40:00 18.2 C 14.61 g/m*3 18.2 C 0 km/h
370 15-08-2020 06:45:00 18.2 C 14.77 g/m*3 18.2 C 0 km/h
371 15-08-2020 06:50:00 18.2 C 14.77 g/m*3 18.2 C 0 km/h
372 15-08-2020 06:55:00 18.2 C 14.77 g/m*3 18.2 C 0 km/h
373 15-08-2020 07:00:00 18.2 C 14.61 g/m*3 18.2 C 0 km/h
374 15-08-2020 07:05:00 18.2 C 14.77 g/m*3 18.2 C 0 km/h
375 15-08-2020 07:10:00 18.3 C 14.85 g/m*3 18.3 C 0 km/h
Sensor: Nr:Datum:Temp:Abs-Feuchte:Windchill:Wind:
Aussen-T/F 376 15-08-2020 07:15:00 18.3 C 14.85 g/m*3 18.3 C 0 km/h
377 15-08-2020 07:20:00 18.4 C 14.94 g/m*3 18.4 C 0 km/h
378 15-08-2020 07:25:00 18.5 C 15.03 g/m*3 18.5 C 0 km/h
379 15-08-2020 07:30:00 18.6 C 15.12 g/m*3 18.6 C 0 km/h
380 15-08-2020 07:35:00 18.7 C 15.21 g/m*3 18.7 C 0 km/h
381 15-08-2020 07:40:00 18.8 C 15.3 g/m*3 18.8 C 0 km/h
382 15-08-2020 07:45:00 18.9 C 15.39 g/m*3 18.9 C 0 km/h
383 15-08-2020 07:50:00 18.9 C 15.39 g/m*3 18.9 C 0 km/h
384 15-08-2020 07:55:00 19 C 15.48 g/m*3 19 C 0 km/h
385 15-08-2020 08:00:00 19.1 C 15.57 g/m*3 19.1 C 0 km/h
386 15-08-2020 08:05:00 19.1 C 15.57 g/m*3 19.1 C 0 km/h
387 15-08-2020 08:10:00 19.2 C 15.66 g/m*3 19.2 C 0 km/h
388 15-08-2020 08:15:00 19.3 C 15.76 g/m*3 19.3 C 0 km/h
389 15-08-2020 08:20:00 19.3 C 15.59 g/m*3 19.3 C 0 km/h
390 15-08-2020 08:25:00 19.4 C 15.68 g/m*3 19.4 C 0 km/h
391 15-08-2020 08:30:00 19.5 C 15.78 g/m*3 19.5 C 0 km/h
392 15-08-2020 08:35:00 19.6 C 15.87 g/m*3 19.6 C 0 km/h
393 15-08-2020 08:40:00 19.7 C 15.96 g/m*3 19.7 C 0 km/h
394 15-08-2020 08:45:00 19.8 C 15.89 g/m*3 19.8 C 0 km/h
395 15-08-2020 08:50:00 19.9 C 15.98 g/m*3 19.9 C 0 km/h
396 15-08-2020 08:55:00 20.1 C 16.17 g/m*3 20.1 C 0 km/h
397 15-08-2020 09:00:00 20.1 C 16.17 g/m*3 20.1 C 0 km/h
398 15-08-2020 09:05:00 20.2 C 16.09 g/m*3 20.2 C 0 km/h
399 15-08-2020 09:10:00 20.2 C 15.91 g/m*3 20.2 C 0 km/h
400 15-08-2020 09:15:00 20.3 C 16 g/m*3 20.3 C 0 km/h
Sensor: Nr:Datum:Temp:Abs-Feuchte:Windchill:Wind:
Aussen-T/F 401 15-08-2020 09:20:00 20.4 C 16.1 g/m*3 20.4 C 0 km/h
402 15-08-2020 09:25:00 20.6 C 16.11 g/m*3 20.6 C 0 km/h
403 15-08-2020 09:30:00 20.7 C 16.2 g/m*3 20.7 C 0 km/h
404 15-08-2020 09:35:00 20.8 C 16.12 g/m*3 20.8 C 0 km/h
405 15-08-2020 09:40:00 20.9 C 16.39 g/m*3 20.9 C 1.6 km/h
406 15-08-2020 09:45:00 21.1 C 16.4 g/m*3 21.1 C 1.6 km/h
407 15-08-2020 09:50:00 21.2 C 16.49 g/m*3 21.2 C 1.6 km/h
408 15-08-2020 09:55:00 21.4 C 16.5 g/m*3 21.4 C 1.6 km/h
409 15-08-2020 10:00:00 21.5 C 16.59 g/m*3 21.5 C 3.2 km/h
410 15-08-2020 10:05:00 21.6 C 16.69 g/m*3 21.6 C 0 km/h
411 15-08-2020 10:10:00 21.7 C 16.6 g/m*3 21.7 C 3.2 km/h
412 15-08-2020 10:15:00 21.9 C 16.79 g/m*3 21.9 C 4.8 km/h
413 15-08-2020 10:20:00 22 C 16.69 g/m*3 22 C 6.4 km/h
414 15-08-2020 10:25:00 22.2 C 16.88 g/m*3 22.2 C 1.6 km/h
415 15-08-2020 10:30:00 22.3 C 16.78 g/m*3 22.3 C 6.4 km/h
416 15-08-2020 10:35:00 22.4 C 16.68 g/m*3 22.4 C 3.2 km/h
417 15-08-2020 10:40:00 22.6 C 16.67 g/m*3 22.6 C 6.4 km/h
418 15-08-2020 10:45:00 22.7 C 16.77 g/m*3 22.7 C 0 km/h
419 15-08-2020 10:50:00 22.9 C 16.96 g/m*3 22.9 C 4.8 km/h
420 15-08-2020 10:55:00 23.1 C 16.74 g/m*3 23.1 C 4.8 km/h
421 15-08-2020 11:00:00 23.2 C 17.05 g/m*3 23.2 C 3.2 km/h
422 15-08-2020 11:05:00 23.4 C 17.24 g/m*3 23.4 C 8.1 km/h
423 15-08-2020 11:10:00 23.5 C 16.92 g/m*3 23.5 C 8.1 km/h
424 15-08-2020 11:15:00 23.6 C 17.01 g/m*3 23.6 C 1.6 km/h
425 15-08-2020 11:20:00 23.7 C 17.11 g/m*3 23.7 C 0 km/h
Sensor: Nr:Datum:Temp:Abs-Feuchte:Windchill:Wind:
Aussen-T/F 426 15-08-2020 11:25:00 23.8 C 16.99 g/m*3 23.8 C 1.6 km/h
427 15-08-2020 11:30:00 23.9 C 16.87 g/m*3 23.9 C 3.2 km/h
428 15-08-2020 11:35:00 24.2 C 17.38 g/m*3 24.2 C 3.2 km/h
429 15-08-2020 11:40:00 24.3 C 17.26 g/m*3 24.3 C 4.8 km/h
430 15-08-2020 11:45:00 24.3 C 17.04 g/m*3 24.3 C 4.8 km/h
431 15-08-2020 11:50:00 24.6 C 17.33 g/m*3 24.6 C 4.8 km/h
432 15-08-2020 11:55:00 24.8 C 17.07 g/m*3 24.8 C 6.4 km/h
433 15-08-2020 12:00:00 24.9 C 17.4 g/m*3 24.9 C 6.4 km/h
434 15-08-2020 12:05:00 24.9 C 17.17 g/m*3 24.9 C 6.4 km/h
435 15-08-2020 12:10:00 24.9 C 17.17 g/m*3 24.9 C 4.8 km/h
436 15-08-2020 12:15:00 24.9 C 16.94 g/m*3 24.9 C 6.4 km/h
437 15-08-2020 12:20:00 24.9 C 16.94 g/m*3 24.9 C 8.1 km/h
438 15-08-2020 12:25:00 24.9 C 16.94 g/m*3 24.9 C 9.7 km/h
439 15-08-2020 12:30:00 24.9 C 16.94 g/m*3 24.9 C 9.7 km/h
440 15-08-2020 12:35:00 25.1 C 17.13 g/m*3 25.1 C 6.4 km/h
441 15-08-2020 12:40:00 25.2 C 16.99 g/m*3 25.2 C 8.1 km/h
442 15-08-2020 12:45:00 25.3 C 16.86 g/m*3 25.3 C 4.8 km/h
443 15-08-2020 12:50:00 25.3 C 16.62 g/m*3 25.3 C 6.4 km/h
444 15-08-2020 12:55:00 25.3 C 16.62 g/m*3 25.3 C 0 km/h
445 15-08-2020 13:00:00 25.4 C 16.95 g/m*3 25.4 C 6.4 km/h
446 15-08-2020 13:05:00 25.5 C 16.81 g/m*3 25.5 C 8.1 km/h
447 15-08-2020 13:10:00 25.7 C 16.76 g/m*3 25.7 C 0 km/h
448 15-08-2020 13:15:00 25.7 C 16.52 g/m*3 25.7 C 0 km/h
449 15-08-2020 13:20:00 25.8 C 16.61 g/m*3 25.8 C 6.4 km/h
450 15-08-2020 13:25:00 25.8 C 16.61 g/m*3 25.8 C 9.7 km/h
Sensor: Nr:Datum:Temp:Abs-Feuchte:Windchill:Wind:
Aussen-T/F 451 15-08-2020 13:30:00 25.8 C 16.61 g/m*3 25.8 C 8.1 km/h
452 15-08-2020 13:35:00 25.9 C 16.46 g/m*3 25.9 C 8.1 km/h
453 15-08-2020 13:40:00 26.1 C 16.65 g/m*3 26.1 C 8.1 km/h
454 15-08-2020 13:45:00 26 C 16.31 g/m*3 26 C 9.7 km/h
455 15-08-2020 13:50:00 26.1 C 16.89 g/m*3 26.1 C 3.2 km/h
456 15-08-2020 13:55:00 26.1 C 16.4 g/m*3 26.1 C 3.2 km/h
457 15-08-2020 14:00:00 26.2 C 16.25 g/m*3 26.2 C 3.2 km/h
458 15-08-2020 14:05:00 26.3 C 16.59 g/m*3 26.3 C 0 km/h
459 15-08-2020 14:10:00 26.4 C 16.43 g/m*3 26.4 C 0 km/h
460 15-08-2020 14:15:00 26.6 C 16.61 g/m*3 26.6 C 0 km/h
461 15-08-2020 14:20:00 26.7 C 16.71 g/m*3 26.7 C 0 km/h
462 15-08-2020 14:25:00 26.9 C 16.64 g/m*3 26.9 C 12.9 km/h
463 15-08-2020 14:30:00 26.8 C 16.54 g/m*3 26.8 C 12.9 km/h
464 15-08-2020 14:35:00 26.3 C 15.84 g/m*3 26.3 C 24.1 km/h
465 15-08-2020 14:40:00 25.5 C 15.63 g/m*3 25.5 C 14.5 km/h
466 15-08-2020 14:45:00 25.1 C 15.28 g/m*3 25.1 C 14.5 km/h
467 15-08-2020 14:50:00 24.8 C 15.02 g/m*3 24.8 C 11.3 km/h
468 15-08-2020 14:55:00 24.6 C 15.08 g/m*3 24.6 C 9.7 km/h
469 15-08-2020 15:00:00 24.6 C 15.3 g/m*3 24.6 C 6.4 km/h
470 15-08-2020 15:05:00 24.6 C 15.08 g/m*3 24.6 C 4.8 km/h
471 15-08-2020 15:10:00 24.6 C 15.08 g/m*3 24.6 C 8.1 km/h
472 15-08-2020 15:15:00 24.5 C 15.22 g/m*3 24.5 C 3.2 km/h
473 15-08-2020 15:20:00 24.5 C 14.99 g/m*3 24.5 C 1.6 km/h
474 15-08-2020 15:25:00 24.5 C 14.99 g/m*3 24.5 C 3.2 km/h
475 15-08-2020 15:30:00 24.5 C 15.22 g/m*3 24.5 C 4.8 km/h
Sensor: Nr:Datum:Temp:Abs-Feuchte:Windchill:Wind:
Aussen-T/F 476 15-08-2020 15:35:00 24.4 C 15.36 g/m*3 24.4 C 3.2 km/h
477 15-08-2020 15:40:00 24.4 C 15.8 g/m*3 24.4 C 0 km/h
478 15-08-2020 15:45:00 24.4 C 16.02 g/m*3 24.4 C 0 km/h
479 15-08-2020 15:50:00 24.2 C 16.06 g/m*3 24.2 C 0 km/h
480 15-08-2020 15:55:00 24.1 C 16.63 g/m*3 24.1 C 0 km/h
481 15-08-2020 16:00:00 23.8 C 16.78 g/m*3 23.8 C 4.8 km/h
482 15-08-2020 16:05:00 23.6 C 17.01 g/m*3 23.6 C 4.8 km/h
483 15-08-2020 16:10:00 23.4 C 16.82 g/m*3 23.4 C 1.6 km/h
484 15-08-2020 16:15:00 23.3 C 16.94 g/m*3 23.3 C 8.1 km/h
485 15-08-2020 16:20:00 23.1 C 16.95 g/m*3 23.1 C 4.8 km/h
486 15-08-2020 16:25:00 22.8 C 17.07 g/m*3 22.8 C 8.1 km/h
487 15-08-2020 16:30:00 22.7 C 16.97 g/m*3 22.7 C 4.8 km/h
488 15-08-2020 16:35:00 22.6 C 16.87 g/m*3 22.6 C 6.4 km/h
489 15-08-2020 16:40:00 22.6 C 17.08 g/m*3 22.6 C 3.2 km/h
490 15-08-2020 16:45:00 22.7 C 16.97 g/m*3 22.7 C 3.2 km/h
491 15-08-2020 16:50:00 22.8 C 17.07 g/m*3 22.8 C 3.2 km/h
492 15-08-2020 16:55:00 22.9 C 17.17 g/m*3 22.9 C 3.2 km/h
493 15-08-2020 17:00:00 23.1 C 17.36 g/m*3 23.1 C 4.8 km/h
494 15-08-2020 17:05:00 23.2 C 17.46 g/m*3 23.2 C 4.8 km/h
495 15-08-2020 17:10:00 23.2 C 17.67 g/m*3 23.2 C 11.3 km/h
496 15-08-2020 17:15:00 23.2 C 17.26 g/m*3 23.2 C 4.8 km/h
497 15-08-2020 17:20:00 23.2 C 17.46 g/m*3 23.2 C 4.8 km/h
498 15-08-2020 17:25:00 23.3 C 17.56 g/m*3 23.3 C 4.8 km/h
499 15-08-2020 17:30:00 23.4 C 17.45 g/m*3 23.4 C 0 km/h
500 15-08-2020 17:35:00 23.6 C 17.44 g/m*3 23.6 C 3.2 km/h
Sensor: Nr:Datum:Temp:Abs-Feuchte:Windchill:Wind:
Aussen-T/F 501 15-08-2020 17:40:00 23.9 C 17.31 g/m*3 23.9 C 4.8 km/h
502 15-08-2020 17:45:00 24.1 C 17.29 g/m*3 24.1 C 4.8 km/h
503 15-08-2020 17:50:00 24.2 C 17.38 g/m*3 24.2 C 0 km/h
504 15-08-2020 17:55:00 24.2 C 17.38 g/m*3 24.2 C 0 km/h
505 15-08-2020 18:00:00 24.2 C 17.38 g/m*3 24.2 C 0 km/h
506 15-08-2020 18:05:00 24.2 C 17.38 g/m*3 24.2 C 0 km/h
507 15-08-2020 18:10:00 24.1 C 17.29 g/m*3 24.1 C 0 km/h
508 15-08-2020 18:15:00 24.1 C 17.29 g/m*3 24.1 C 0 km/h
509 15-08-2020 18:20:00 24.1 C 17.5 g/m*3 24.1 C 0 km/h
510 15-08-2020 18:25:00 24.1 C 17.72 g/m*3 24.1 C 0 km/h
511 15-08-2020 18:30:00 24 C 17.41 g/m*3 24 C 0 km/h
512 15-08-2020 18:35:00 23.9 C 17.52 g/m*3 23.9 C 0 km/h
513 15-08-2020 18:40:00 23.8 C 17.42 g/m*3 23.8 C 0 km/h
514 15-08-2020 18:45:00 23.8 C 17.64 g/m*3 23.8 C 0 km/h
515 15-08-2020 18:50:00 23.8 C 17.64 g/m*3 23.8 C 0 km/h
516 15-08-2020 18:55:00 23.7 C 17.54 g/m*3 23.7 C 0 km/h
517 15-08-2020 19:00:00 23.7 C 17.54 g/m*3 23.7 C 0 km/h
518 15-08-2020 19:05:00 23.6 C 17.65 g/m*3 23.6 C 0 km/h
519 15-08-2020 19:10:00 23.5 C 17.55 g/m*3 23.5 C 0 km/h
520 15-08-2020 19:15:00 23.4 C 17.45 g/m*3 23.4 C 0 km/h
521 15-08-2020 19:20:00 23.4 C 17.66 g/m*3 23.4 C 0 km/h
522 15-08-2020 19:25:00 23.3 C 17.56 g/m*3 23.3 C 0 km/h
523 15-08-2020 19:30:00 23.3 C 17.77 g/m*3 23.3 C 0 km/h
524 15-08-2020 19:35:00 23.3 C 17.77 g/m*3 23.3 C 0 km/h
525 15-08-2020 19:40:00 23.3 C 17.77 g/m*3 23.3 C 0 km/h
Sensor: Nr:Datum:Temp:Abs-Feuchte:Windchill:Wind:
Aussen-T/F 526 15-08-2020 19:45:00 23.3 C 17.77 g/m*3 23.3 C 0 km/h
527 15-08-2020 19:50:00 23.3 C 17.77 g/m*3 23.3 C 0 km/h
528 15-08-2020 19:55:00 23.4 C 18.08 g/m*3 23.4 C 3.2 km/h
529 15-08-2020 20:00:00 23.4 C 18.08 g/m*3 23.4 C 1.6 km/h
530 15-08-2020 20:05:00 23.3 C 18.19 g/m*3 23.3 C 0 km/h
531 15-08-2020 20:10:00 23.4 C 18.08 g/m*3 23.4 C 0 km/h
532 15-08-2020 20:15:00 23.4 C 18.08 g/m*3 23.4 C 0 km/h
533 15-08-2020 20:20:00 23.3 C 17.98 g/m*3 23.3 C 0 km/h
534 15-08-2020 20:25:00 23.3 C 17.77 g/m*3 23.3 C 0 km/h
535 15-08-2020 20:30:00 23.3 C 17.56 g/m*3 23.3 C 0 km/h
536 15-08-2020 20:35:00 23.2 C 17.46 g/m*3 23.2 C 0 km/h
537 15-08-2020 20:40:00 23.1 C 17.16 g/m*3 23.1 C 0 km/h
538 15-08-2020 20:45:00 22.9 C 17.17 g/m*3 22.9 C 0 km/h
539 15-08-2020 20:50:00 22.8 C 17.07 g/m*3 22.8 C 1.6 km/h
540 15-08-2020 20:55:00 22.7 C 16.77 g/m*3 22.7 C 0 km/h
541 15-08-2020 21:00:00 22.6 C 16.87 g/m*3 22.6 C 0 km/h
542 15-08-2020 21:05:00 22.4 C 16.68 g/m*3 22.4 C 0 km/h
543 15-08-2020 21:10:00 22.3 C 16.59 g/m*3 22.3 C 0 km/h
544 15-08-2020 21:15:00 22.2 C 16.69 g/m*3 22.2 C 0 km/h
545 15-08-2020 21:20:00 22.1 C 16.59 g/m*3 22.1 C 0 km/h
546 15-08-2020 21:25:00 22 C 16.69 g/m*3 22 C 0 km/h
547 15-08-2020 21:30:00 21.9 C 16.6 g/m*3 21.9 C 0 km/h
548 15-08-2020 21:35:00 21.8 C 16.5 g/m*3 21.8 C 0 km/h
549 15-08-2020 21:40:00 21.7 C 16.6 g/m*3 21.7 C 0 km/h
550 15-08-2020 21:45:00 21.7 C 16.6 g/m*3 21.7 C 0 km/h
Sensor: Nr:Datum:Temp:Abs-Feuchte:Windchill:Wind:
Aussen-T/F 551 15-08-2020 21:50:00 21.6 C 16.5 g/m*3 21.6 C 0 km/h
552 15-08-2020 21:55:00 21.6 C 16.69 g/m*3 21.6 C 0 km/h
553 15-08-2020 22:00:00 21.4 C 16.5 g/m*3 21.4 C 0 km/h
554 15-08-2020 22:05:00 21.4 C 16.5 g/m*3 21.4 C 0 km/h
555 15-08-2020 22:10:00 21.3 C 16.59 g/m*3 21.3 C 0 km/h
556 15-08-2020 22:15:00 21.3 C 16.59 g/m*3 21.3 C 0 km/h
557 15-08-2020 22:20:00 21.2 C 16.49 g/m*3 21.2 C 0 km/h
558 15-08-2020 22:25:00 21.2 C 16.49 g/m*3 21.2 C 0 km/h
559 15-08-2020 22:30:00 21.1 C 16.4 g/m*3 21.1 C 0 km/h
560 15-08-2020 22:35:00 21.1 C 16.58 g/m*3 21.1 C 0 km/h
561 15-08-2020 22:40:00 21 C 16.49 g/m*3 21 C 0 km/h
562 15-08-2020 22:45:00 20.9 C 16.39 g/m*3 20.9 C 0 km/h
563 15-08-2020 22:50:00 20.9 C 16.39 g/m*3 20.9 C 0 km/h
564 15-08-2020 22:55:00 20.8 C 16.3 g/m*3 20.8 C 0 km/h
565 15-08-2020 23:00:00 20.8 C 16.3 g/m*3 20.8 C 0 km/h
566 15-08-2020 23:05:00 20.8 C 16.3 g/m*3 20.8 C 0 km/h
567 15-08-2020 23:10:00 20.7 C 16.38 g/m*3 20.7 C 0 km/h
568 15-08-2020 23:15:00 20.6 C 16.29 g/m*3 20.6 C 0 km/h
569 15-08-2020 23:20:00 20.6 C 16.29 g/m*3 20.6 C 0 km/h
570 15-08-2020 23:25:00 20.5 C 16.19 g/m*3 20.5 C 0 km/h
571 15-08-2020 23:30:00 20.4 C 16.1 g/m*3 20.4 C 0 km/h
572 15-08-2020 23:35:00 20.3 C 16 g/m*3 20.3 C 0 km/h
573 15-08-2020 23:40:00 20.2 C 15.91 g/m*3 20.2 C 0 km/h
574 15-08-2020 23:45:00 20.2 C 15.91 g/m*3 20.2 C 0 km/h
575 15-08-2020 23:50:00 20.1 C 15.82 g/m*3 20.1 C 0 km/h
Sensor: Nr:Datum:Temp:Abs-Feuchte:Windchill:Wind:
Aussen-T/F 576 15-08-2020 23:55:00 20.1 C 15.82 g/m*3 20.1 C 0 km/h

Legende:
   Min
   Max


Maximal/Minimal-Werte vom 14.08.2020 - 15.08.2020

Sensor Min Max Avg
Temp
(Aussen-T/F)
18.2 °C
15-08-2020  05:25:00
30.7 °C
14-08-2020  17:55:00
22.5 °C
Abs-Feuchte
(Aussen-T/F)
14.54 g/m*3
15-08-2020  05:00:00
18.19 g/m*3
15-08-2020  20:05:00
15.9 g/m*3
Windchill
(Aussen-T/F)
18.2 C
15-08-2020  05:25:00
30.7 C
14-08-2020  17:55:00
22.46 C

Die Daten stammen von einer Davis Vantage Pro 2 Wetter-Station und werden unter Linux mit der Software wview2wettercgi und aufbereitet. Alle Angaben erfolgen ohne Gewähr für ihre Vollständigkeit oder Richtigkeit.
Kontakt: Rainer Krienke krienke@uni-koblenz.de . Meine Webseiten an der Uni Koblenz oder privat.
Version: $Revision: 0.78 $